Time;durP1;ratioP1;P1;durP2;ratioP2;P2;SDS_P1;SDS_P2;PMS_P1;PMS_P2;Temp;Humidity;BMP_temperature;BMP_pressure;BME280_temperature;BME280_humidity;BME280_pressure;Samples;Min_cycle;Max_cycle;Signal;HPM_P1;HPM_P2
2022/06/14 00:01:09;;;;;;;7.13;3.60;;;;;;;23.96;56.41;94903.78;5096460;28;20843;-54
2022/06/14 00:03:37;;;;;;;5.47;3.20;;;;;;;23.92;55.91;94903.34;5092674;28;20044;-55
2022/06/14 00:06:08;;;;;;;6.97;3.50;;;;;;;23.93;56.31;94894.66;5099019;28;20022;-55
2022/06/14 00:08:33;;;;;;;6.22;3.22;;;;;;;23.93;56.35;94894.66;5094111;28;20502;-55
2022/06/14 00:11:00;;;;;;;6.05;3.30;;;;;;;23.92;55.90;94898.63;5101514;28;20023;-53
2022/06/14 00:13:26;;;;;;;5.78;3.30;;;;;;;23.88;56.34;94892.00;5083155;28;20046;-54
2022/06/14 00:15:51;;;;;;;5.20;2.85;;;;;;;23.88;56.21;94897.44;5101388;28;20027;-54
2022/06/14 00:18:17;;;;;;;5.22;3.25;;;;;;;23.87;56.60;94896.72;5098681;28;20027;-54
2022/06/14 00:20:43;;;;;;;4.85;3.65;;;;;;;23.85;56.51;94908.66;5099557;28;20649;-52
2022/06/14 00:23:08;;;;;;;5.68;3.30;;;;;;;23.82;56.61;94906.97;5092102;28;20028;-52
2022/06/14 00:25:39;;;;;;;6.13;3.33;;;;;;;23.81;56.49;94900.03;5077697;28;20609;-55
2022/06/14 00:28:06;;;;;;;4.25;3.05;;;;;;;23.79;56.41;94905.97;5072989;28;20040;-53
2022/06/14 00:30:31;;;;;;;6.50;3.58;;;;;;;23.78;56.73;94904.53;5082208;28;20119;-55
2022/06/14 00:32:57;;;;;;;6.90;3.55;;;;;;;23.79;56.69;94910.72;5091699;28;20065;-56
2022/06/14 00:35:23;;;;;;;4.78;3.65;;;;;;;23.79;56.58;94907.97;5099882;28;20015;-56
2022/06/14 00:37:49;;;;;;;5.80;3.22;;;;;;;23.79;56.29;94905.25;5101289;28;20016;-52
2022/06/14 00:40:17;;;;;;;8.20;3.10;;;;;;;23.80;56.35;94896.56;5091708;28;20160;-53
2022/06/14 00:42:43;;;;;;;5.45;3.25;;;;;;;23.79;56.74;94910.72;5095266;28;20671;-51
2022/06/14 00:45:11;;;;;;;5.80;3.42;;;;;;;23.73;56.59;94907.31;5093628;28;20015;-50
2022/06/14 00:47:40;;;;;;;5.85;3.17;;;;;;;23.75;56.68;94915.72;5092985;28;20030;-55
2022/06/14 00:50:12;;;;;;;5.40;3.22;;;;;;;23.71;56.76;94905.09;5088861;28;20104;-56
2022/06/14 00:53:08;;;;;;;4.35;3.40;;;;;;;23.67;56.75;94914.81;5083504;28;20026;-52
2022/06/14 00:55:38;;;;;;;6.10;3.35;;;;;;;23.66;57.36;94918.78;5057423;28;20027;-52
2022/06/14 00:58:16;;;;;;;6.22;3.28;;;;;;;23.65;56.81;94917.34;5065633;28;20040;-51
2022/06/14 01:00:56;;;;;;;5.03;3.40;;;;;;;23.64;56.94;94932.19;5080339;28;20031;-52
2022/06/14 01:03:23;;;;;;;5.10;3.85;;;;;;;23.61;57.36;94927.75;5070024;28;20028;-57
2022/06/14 01:06:12;;;;;;;4.82;3.80;;;;;;;23.64;56.92;94915.84;5064406;28;20063;-54
2022/06/14 01:08:44;;;;;;;6.93;3.45;;;;;;;23.60;57.05;94920.81;5080712;28;20549;-56
2022/06/14 01:11:12;;;;;;;6.45;4.18;;;;;;;23.62;57.40;94918.31;5090170;28;20028;-54
2022/06/14 01:13:38;;;;;;;4.63;3.60;;;;;;;23.57;57.39;94911.69;5085906;28;20038;-51
2022/06/14 01:16:03;;;;;;;6.95;3.55;;;;;;;23.60;56.76;94915.34;5102121;28;20035;-54
2022/06/14 01:18:29;;;;;;;5.53;3.70;;;;;;;23.54;57.11;94914.69;5091555;28;20028;-56
2022/06/14 01:20:55;;;;;;;5.60;3.85;;;;;;;23.57;57.10;94911.69;5067613;28;20410;-52
2022/06/14 01:23:20;;;;;;;4.72;3.75;;;;;;;23.55;56.83;94913.44;5098739;28;20030;-51
2022/06/14 01:25:51;;;;;;;4.75;3.75;;;;;;;23.51;57.16;94907.53;5084117;28;20803;-52
2022/06/14 01:28:18;;;;;;;5.10;4.00;;;;;;;23.53;57.29;94899.59;5078318;28;20023;-56
2022/06/14 01:30:45;;;;;;;6.07;4.00;;;;;;;23.51;57.59;94904.81;5076101;28;20106;-55
2022/06/14 01:33:24;;;;;;;6.10;3.97;;;;;;;23.47;57.49;94896.19;5091452;28;20019;-54
2022/06/14 01:35:52;;;;;;;6.27;3.60;;;;;;;23.42;57.46;94899.69;5068102;28;20019;-53
2022/06/14 01:38:18;;;;;;;5.40;3.50;;;;;;;23.43;57.61;94895.72;5071778;28;20058;-55
2022/06/14 01:40:55;;;;;;;5.07;3.80;;;;;;;23.45;57.43;94904.13;5053519;28;20028;-54
2022/06/14 01:43:42;;;;;;;5.28;3.50;;;;;;;23.42;57.02;94899.69;5095962;28;20024;-54
2022/06/14 01:46:24;;;;;;;5.22;3.75;;;;;;;23.39;57.45;94900.72;5094182;28;20184;-52
2022/06/14 01:52:13;;;;;;;6.20;3.58;;;;;;;23.35;56.97;94899.53;5089941;28;20051;-53
2022/06/14 01:54:49;;;;;;;6.38;3.45;;;;;;;23.34;57.27;94909.69;5081205;28;20023;-52
2022/06/14 01:57:24;;;;;;;6.13;3.78;;;;;;;23.31;57.28;94905.28;5082923;28;20028;-52
2022/06/14 02:00:04;;;;;;;4.60;3.25;;;;;;;23.34;57.15;94904.25;5085525;28;20043;-56
2022/06/14 02:02:42;;;;;;;5.57;3.33;;;;;;;23.25;57.16;94906.59;5073709;28;20034;-51
2022/06/14 02:05:21;;;;;;;4.70;3.45;;;;;;;23.27;57.46;94915.69;5099338;28;20042;-52
2022/06/14 02:07:57;;;;;;;6.05;3.60;;;;;;;23.21;57.08;94911.56;5067141;28;20073;-51
2022/06/14 02:10:44;;;;;;;7.60;3.85;;;;;;;23.22;57.23;94919.22;5095521;28;20023;-56
2022/06/14 02:13:25;;;;;;;4.68;3.97;;;;;;;23.22;56.92;94913.06;5067765;28;20042;-54
2022/06/14 02:15:55;;;;;;;6.13;3.80;;;;;;;23.18;57.20;94924.22;5091852;28;20023;-52
2022/06/14 02:18:27;;;;;;;6.72;3.78;;;;;;;23.18;57.91;94924.22;5074816;28;20024;-52
2022/06/14 02:21:13;;;;;;;4.93;4.15;;;;;;;23.20;57.75;94931.88;5092554;28;20028;-55
2022/06/14 02:23:47;;;;;;;4.95;3.60;;;;;;;23.13;57.57;94933.19;5055259;28;20050;-53
2022/06/14 02:26:24;;;;;;;6.22;3.70;;;;;;;23.11;57.95;94941.13;5090780;28;20103;-52
2022/06/14 02:28:53;;;;;;;5.03;4.00;;;;;;;23.11;57.85;94940.41;5061066;28;20027;-52
2022/06/14 02:31:47;;;;;;;6.43;3.83;;;;;;;23.08;57.70;94942.16;5068371;28;20089;-54
2022/06/14 02:34:17;;;;;;;8.82;4.50;;;;;;;23.08;57.67;94931.25;5073886;28;20024;-51
2022/06/14 02:36:52;;;;;;;6.57;3.85;;;;;;;23.01;57.64;94942.69;5073345;28;20039;-53
2022/06/14 02:39:22;;;;;;;4.43;3.88;;;;;;;23.03;57.57;94944.91;5046698;28;20039;-52
2022/06/14 02:41:59;;;;;;;6.15;3.75;;;;;;;23.03;57.49;94945.66;5065153;28;20043;-52
2022/06/14 02:44:33;;;;;;;4.97;3.70;;;;;;;22.98;57.76;94949.16;5096423;28;21183;-54
2022/06/14 02:47:41;;;;;;;6.38;4.07;;;;;;;22.95;57.45;94955.63;5068382;28;20102;-54
2022/06/14 02:50:21;;;;;;;6.28;4.20;;;;;;;22.95;57.92;94955.63;4983830;28;20224;-57
2022/06/14 02:52:52;;;;;;;5.15;3.90;;;;;;;22.92;58.03;94950.44;4973153;28;20100;-52
2022/06/14 02:55:39;;;;;;;8.10;4.68;;;;;;;22.94;57.85;94953.41;5038296;28;20100;-52
2022/06/14 02:58:25;;;;;;;4.35;3.80;;;;;;;22.89;58.28;94952.16;5081764;28;20079;-52
2022/06/14 03:01:35;;;;;;;6.05;3.67;;;;;;;22.93;57.61;94952.69;5056988;28;20088;-54
2022/06/14 03:04:16;;;;;;;5.05;4.13;;;;;;;22.92;57.86;94955.88;5077616;28;20039;-52
2022/06/14 03:07:04;;;;;;;5.25;4.38;;;;;;;22.95;57.91;94955.63;5067103;28;20035;-52
2022/06/14 03:09:34;;;;;;;7.57;4.20;;;;;;;22.90;57.66;94961.84;5063462;28;20027;-51
2022/06/14 03:12:25;;;;;;;5.57;4.25;;;;;;;22.90;57.77;94970.00;5081413;28;20031;-52
2022/06/14 03:14:57;;;;;;;5.95;4.07;;;;;;;22.91;58.22;94971.50;5083352;28;20032;-55
2022/06/14 03:17:50;;;;;;;11.52;4.35;;;;;;;22.94;57.89;94973.22;5069338;28;20028;-55
2022/06/14 03:20:18;;;;;;;5.60;4.20;;;;;;;22.96;57.77;94976.16;5069200;28;20483;-55
2022/06/14 03:23:00;;;;;;;8.52;4.53;;;;;;;22.96;57.89;94970.00;5080347;28;20023;-55
2022/06/14 03:25:30;;;;;;;5.80;4.55;;;;;;;23.01;58.12;94969.94;5058541;28;20026;-52
2022/06/14 03:28:01;;;;;;;7.13;4.35;;;;;;;23.00;57.94;94963.03;5078654;28;20072;-54
2022/06/14 03:30:52;;;;;;;8.30;4.72;;;;;;;22.95;58.13;94963.06;5069073;28;20023;-53
2022/06/14 03:33:56;;;;;;;5.32;4.20;;;;;;;22.98;58.52;94957.31;5052316;28;20044;-55
2022/06/14 03:36:22;;;;;;;10.30;4.72;;;;;;;23.00;58.03;94962.28;5081532;28;20032;-52
2022/06/14 03:38:53;;;;;;;5.75;4.82;;;;;;;22.96;58.27;94962.56;5086540;28;20402;-53
2022/06/14 03:41:27;;;;;;;6.18;4.47;;;;;;;23.00;58.13;94963.03;5083413;28;20063;-53
2022/06/14 03:43:53;;;;;;;9.07;4.70;;;;;;;22.97;58.35;94968.72;5068207;28;20058;-54
2022/06/14 03:46:21;;;;;;;7.80;4.80;;;;;;;22.98;58.30;94962.78;5085710;28;20024;-54
2022/06/14 03:48:50;;;;;;;6.15;4.63;;;;;;;22.95;58.64;94965.78;5087471;28;20032;-56
2022/06/14 03:51:20;;;;;;;7.15;4.53;;;;;;;22.94;58.88;94969.75;5054996;28;20027;-55
2022/06/14 03:54:23;;;;;;;5.53;4.80;;;;;;;22.97;58.84;94974.19;5097603;28;20035;-54
2022/06/14 03:56:54;;;;;;;7.75;4.72;;;;;;;22.98;58.42;94973.66;5098728;28;20035;-53
2022/06/14 03:59:38;;;;;;;4.50;3.97;;;;;;;22.98;58.42;94976.41;5097339;28;20051;-52
2022/06/14 04:02:10;;;;;;;6.05;4.47;;;;;;;23.00;58.73;94973.16;5089406;28;20023;-54
2022/06/14 04:04:56;;;;;;;10.98;4.82;;;;;;;23.03;59.14;94972.91;5084019;28;20027;-55
2022/06/14 04:07:44;;;;;;;7.75;4.53;;;;;;;23.03;59.12;94978.34;5099813;28;20112;-53
2022/06/14 04:10:18;;;;;;;6.53;4.78;;;;;;;23.04;59.10;94979.81;5062795;28;20020;-54
2022/06/14 04:12:49;;;;;;;6.03;4.53;;;;;;;23.09;58.90;94981.78;5081216;28;20031;-54
2022/06/14 04:15:44;;;;;;;9.50;4.72;;;;;;;23.17;58.68;94988.13;5053281;28;20032;-55
2022/06/14 04:18:40;;;;;;;6.53;4.53;;;;;;;23.20;58.91;94984.41;5067060;28;20173;-53
2022/06/14 04:21:49;;;;;;;7.10;4.50;;;;;;;23.30;58.71;94985.53;5086340;28;20173;-72
2022/06/14 04:24:34;;;;;;;5.78;4.90;;;;;;;23.36;58.66;94988.22;4993581;28;20511;-53
2022/06/14 04:27:05;;;;;;;8.65;4.90;;;;;;;23.50;58.31;94987.84;4976075;28;20096;-52
2022/06/14 04:29:38;;;;;;;6.88;4.88;;;;;;;23.53;58.77;94987.53;5042590;28;20126;-53
2022/06/14 04:32:30;;;;;;;7.43;5.18;;;;;;;23.67;57.95;94996.59;5081583;28;20059;-52
2022/06/14 04:35:04;;;;;;;7.18;4.97;;;;;;;23.77;57.79;94997.75;5073389;28;20121;-54
2022/06/14 04:37:33;;;;;;;8.38;5.43;;;;;;;23.89;57.82;94992.38;5081584;28;20111;-52
2022/06/14 04:40:12;;;;;;;8.05;5.63;;;;;;;23.99;57.51;94990.78;5044878;28;20036;-52
2022/06/14 04:42:59;;;;;;;9.95;5.00;;;;;;;24.08;57.72;95003.31;5066317;28;20135;-52
2022/06/14 04:45:45;;;;;;;8.00;5.68;;;;;;;24.20;57.10;94999.97;5087587;28;20113;-54
2022/06/14 04:48:32;;;;;;;11.40;5.93;;;;;;;24.30;56.97;94998.34;5077510;28;20069;-52
2022/06/14 04:51:24;;;;;;;11.65;6.80;;;;;;;24.38;56.70;95004.75;5059764;28;20016;-52
2022/06/14 04:53:56;;;;;;;12.40;6.88;;;;;;;24.45;56.89;95004.88;5078311;28;20024;-53
2022/06/14 04:57:02;;;;;;;11.77;7.25;;;;;;;24.59;56.45;95005.72;5067887;28;20048;-52
2022/06/14 04:59:41;;;;;;;13.88;7.70;;;;;;;24.84;56.15;95003.09;5081354;28;20753;-54
2022/06/14 05:02:13;;;;;;;9.60;7.55;;;;;;;24.82;56.03;95005.59;5070907;28;20081;-54
2022/06/14 05:04:42;;;;;;;10.38;6.78;;;;;;;25.01;55.45;95011.06;5083098;28;20039;-54
2022/06/14 05:07:18;;;;;;;17.20;7.28;;;;;;;25.18;55.25;95015.00;5077033;28;21643;-56
2022/06/14 05:10:11;;;;;;;9.77;6.90;;;;;;;25.24;55.10;95018.38;5094794;28;20045;-55
2022/06/14 05:12:53;;;;;;;12.23;6.60;;;;;;;25.35;54.81;95018.19;5074253;28;20055;-53
2022/06/14 05:15:39;;;;;;;10.80;6.30;;;;;;;25.42;54.72;95018.31;5098366;28;20748;-52
2022/06/14 05:18:09;;;;;;;10.73;6.50;;;;;;;25.55;54.48;95012.16;5068885;28;20483;-58
2022/06/14 05:20:39;;;;;;;;;;;;;;;25.45;54.78;95017.28;5049455;28;20034;-52
2022/06/14 05:23:31;;;;;;;9.63;5.60;;;;;;;25.57;54.22;95017.84;5073235;28;19923;-52
2022/06/14 05:26:20;;;;;;;6.80;4.70;;;;;;;25.69;53.97;95024.63;5074524;28;20122;-53
2022/06/14 05:29:10;;;;;;;9.40;5.38;;;;;;;25.82;53.69;95028.84;5100080;28;20028;-52
2022/06/14 05:31:46;;;;;;;7.50;5.05;;;;;;;25.88;53.78;95032.22;5093523;28;20066;-56
2022/06/14 05:34:21;;;;;;;8.32;5.03;;;;;;;26.10;53.31;95031.81;5086008;28;20019;-52
2022/06/14 05:36:52;;;;;;;8.25;5.25;;;;;;;26.12;53.87;95040.22;5075783;28;20054;-52
2022/06/14 05:39:19;;;;;;;7.13;4.47;;;;;;;26.15;53.10;95033.69;5077868;28;20130;-52
2022/06/14 05:41:52;;;;;;;5.85;4.45;;;;;;;26.11;53.57;95049.69;5070757;28;20040;-55
2022/06/14 05:44:28;;;;;;;7.05;4.45;;;;;;;26.22;53.83;95044.03;5071496;28;20032;-53
2022/06/14 05:46:55;;;;;;;9.07;5.32;;;;;;;26.22;53.51;95033.06;5072222;28;20021;-53
2022/06/14 05:49:23;;;;;;;6.90;4.30;;;;;;;26.14;53.59;95054.13;5100606;28;20498;-52
2022/06/14 05:51:53;;;;;;;6.82;3.92;;;;;;;26.26;52.58;95058.13;5101415;28;20548;-52
2022/06/14 05:54:25;;;;;;;9.80;3.92;;;;;;;26.08;53.23;95056.22;5097304;28;20059;-54
2022/06/14 05:57:03;;;;;;;4.80;4.25;;;;;;;26.24;52.48;95063.41;5069963;28;20031;-51
2022/06/14 05:59:37;;;;;;;6.80;4.72;;;;;;;26.18;53.15;95062.03;5096565;28;20049;-53
2022/06/14 06:02:12;;;;;;;6.90;4.40;;;;;;;26.19;52.61;95060.75;5086883;28;20114;-52
2022/06/14 06:04:49;;;;;;;6.18;3.97;;;;;;;26.28;52.53;95063.84;5078719;28;20048;-52
2022/06/14 06:07:16;;;;;;;6.55;4.25;;;;;;;26.24;51.80;95055.19;5087010;28;20020;-54
2022/06/14 06:09:48;;;;;;;5.32;4.38;;;;;;;26.29;52.13;95065.31;5082808;28;20020;-57
2022/06/14 06:12:16;;;;;;;4.70;4.13;;;;;;;26.40;51.93;95065.13;5065060;28;20022;-54
2022/06/14 06:15:03;;;;;;;4.45;3.95;;;;;;;26.28;51.76;95059.09;5065861;28;20028;-54
2022/06/14 06:17:34;;;;;;;4.78;4.22;;;;;;;26.47;51.58;95069.94;5085480;28;20027;-55
2022/06/14 06:20:24;;;;;;;7.05;4.30;;;;;;;26.49;51.52;95068.16;5069285;28;20020;-52
2022/06/14 06:23:22;;;;;;;6.72;4.20;;;;;;;26.52;51.01;95077.31;5091601;28;20031;-52
2022/06/14 06:25:50;;;;;;;5.22;3.80;;;;;;;26.52;51.39;95069.09;5068375;28;20111;-51
2022/06/14 06:28:46;;;;;;;5.82;4.30;;;;;;;26.68;50.91;95073.50;5064206;28;20024;-56
2022/06/14 06:31:18;;;;;;;6.07;4.55;;;;;;;26.76;50.81;95079.81;5054063;28;20105;-52
2022/06/14 06:33:48;;;;;;;5.32;4.38;;;;;;;26.78;50.90;95076.00;5070184;28;20031;-52
2022/06/14 06:36:33;;;;;;;6.38;4.43;;;;;;;26.65;51.01;95069.06;5084535;28;20047;-53
2022/06/14 06:39:35;;;;;;;7.88;4.57;;;;;;;26.61;51.05;95068.69;5089113;28;20020;-55
2022/06/14 06:42:11;;;;;;;7.03;4.25;;;;;;;26.55;51.40;95070.78;5071410;28;20080;-55
2022/06/14 06:44:58;;;;;;;5.72;4.50;;;;;;;26.61;51.62;95074.16;5070111;28;20031;-54
2022/06/14 06:47:30;;;;;;;6.65;4.35;;;;;;;26.57;51.30;95079.22;5085198;28;20088;-53
2022/06/14 06:50:08;;;;;;;5.43;4.30;;;;;;;26.45;51.87;95083.44;5070543;28;20062;-53
2022/06/14 06:52:48;;;;;;;6.38;4.50;;;;;;;26.44;51.28;95076.47;5090922;28;20169;-55
2022/06/14 06:55:39;;;;;;;6.25;3.90;;;;;;;26.43;51.24;95085.97;5066730;28;20042;-53
2022/06/14 06:58:26;;;;;;;4.40;4.00;;;;;;;26.31;51.49;95096.38;5026976;28;20051;-54
2022/06/14 07:00:54;;;;;;;5.95;4.13;;;;;;;26.19;52.20;95088.88;5066558;28;20036;-54
2022/06/14 07:03:41;;;;;;;6.25;4.13;;;;;;;26.17;51.88;95096.88;5091911;28;20035;-53
2022/06/14 07:06:11;;;;;;;9.80;4.80;;;;;;;26.14;52.25;95092.44;5086254;28;20028;-53
2022/06/14 07:08:42;;;;;;;5.55;4.45;;;;;;;26.02;52.50;95090.44;5085008;28;20020;-55
2022/06/14 07:11:07;;;;;;;8.73;4.10;;;;;;;25.89;52.62;95093.91;5102499;28;20414;-53
2022/06/14 07:13:44;;;;;;;5.15;4.50;;;;;;;25.96;52.87;95092.53;5067219;28;20127;-52
2022/06/14 07:16:21;;;;;;;5.15;3.92;;;;;;;25.92;52.33;95087.38;5067987;28;20510;-53
2022/06/14 07:19:00;;;;;;;4.97;4.05;;;;;;;25.91;52.76;95102.31;5083303;28;20654;-54
2022/06/14 07:21:33;;;;;;;6.03;4.45;;;;;;;25.83;52.66;95093.25;5062140;28;20032;-53
2022/06/14 07:24:31;;;;;;;4.97;4.43;;;;;;;25.76;52.95;95089.66;5065305;28;20057;-52
2022/06/14 07:27:11;;;;;;;5.47;4.18;;;;;;;25.74;53.05;95095.66;5057476;28;20607;-55
2022/06/14 07:29:40;;;;;;;5.40;4.00;;;;;;;25.71;53.21;95095.94;5063987;28;20020;-52
2022/06/14 07:32:08;;;;;;;8.85;4.45;;;;;;;25.77;53.24;95107.53;5066026;28;20021;-55
2022/06/14 07:34:35;;;;;;;7.60;4.40;;;;;;;25.71;53.03;95098.69;5088647;28;20065;-52
2022/06/14 07:37:25;;;;;;;6.22;4.50;;;;;;;25.64;53.09;95099.28;5063073;28;20062;-54
2022/06/14 07:39:56;;;;;;;7.07;4.35;;;;;;;25.56;53.60;95104.63;5063567;28;20039;-53
2022/06/14 07:42:58;;;;;;;7.45;4.20;;;;;;;25.57;53.68;95099.88;5065582;28;20032;-52
2022/06/14 07:45:45;;;;;;;6.07;4.45;;;;;;;25.57;53.64;95105.34;5073860;28;20031;-51
2022/06/14 07:48:16;;;;;;;6.07;4.75;;;;;;;25.56;54.02;95098.41;5074674;28;20050;-51
2022/06/14 07:50:52;;;;;;;5.95;4.45;;;;;;;25.60;53.99;95104.31;5087803;28;20111;-54
2022/06/14 07:53:35;;;;;;;6.63;4.40;;;;;;;25.58;54.30;95107.56;5081174;28;20012;-52
2022/06/14 07:56:12;;;;;;;6.25;4.53;;;;;;;25.53;54.20;95113.13;5062908;28;20534;-52
2022/06/14 07:58:52;;;;;;;7.25;4.60;;;;;;;25.63;54.06;95108.75;5066340;28;20093;-52
2022/06/14 08:01:26;;;;;;;6.65;4.53;;;;;;;25.58;54.35;95106.84;5055749;28;20506;-55
2022/06/14 08:04:00;;;;;;;5.93;4.45;;;;;;;25.54;54.57;95100.94;5050076;28;20016;-53
2022/06/14 08:06:48;;;;;;;7.38;4.97;;;;;;;25.61;54.50;95100.34;5066929;28;20439;-55
2022/06/14 08:09:47;;;;;;;7.07;4.38;;;;;;;25.54;55.03;95100.94;5064438;28;20108;-51
2022/06/14 08:12:24;;;;;;;6.60;4.13;;;;;;;25.56;54.68;95092.94;5069460;28;20036;-52
2022/06/14 08:15:01;;;;;;;7.57;4.80;;;;;;;25.60;54.68;95087.91;5068648;28;20032;-52
2022/06/14 08:17:32;;;;;;;8.10;4.40;;;;;;;25.61;54.53;95092.13;5075564;28;20038;-52
2022/06/14 08:20:12;;;;;;;5.55;4.47;;;;;;;25.62;54.79;95096.31;5066055;28;20028;-55
2022/06/14 08:22:43;;;;;;;6.60;4.70;;;;;;;25.62;55.32;95096.31;5075201;28;20748;-54
2022/06/14 08:25:13;;;;;;;7.60;4.65;;;;;;;25.63;54.58;95086.88;5056139;28;20069;-54
2022/06/14 08:27:45;;;;;;;7.13;4.43;;;;;;;25.61;54.44;95089.38;5087489;28;20032;-52
2022/06/14 08:30:15;;;;;;;6.43;4.50;;;;;;;25.69;54.47;95090.28;5055816;28;20571;-53
2022/06/14 08:32:55;;;;;;;7.68;4.28;;;;;;;25.68;54.42;95084.06;5065290;28;20028;-56
2022/06/14 08:35:37;;;;;;;9.65;4.47;;;;;;;25.67;54.65;95088.06;5060756;28;20111;-54
2022/06/14 08:38:33;;;;;;;9.30;4.60;;;;;;;25.67;54.43;95076.41;5089177;28;20024;-52
2022/06/14 08:41:30;;;;;;;5.57;4.07;;;;;;;25.71;54.21;95082.28;5081322;28;20032;-52
2022/06/14 08:43:59;;;;;;;4.80;4.03;;;;;;;25.71;53.65;95082.28;5085214;28;20195;-54
2022/06/14 08:46:51;;;;;;;108.63;71.07;;;;;;;25.70;54.29;95080.81;5060400;28;20066;-53
2022/06/14 08:49:53;;;;;;;8.23;3.97;;;;;;;25.77;53.69;95080.19;5086034;28;20781;-53
2022/06/14 08:52:22;;;;;;;5.63;3.90;;;;;;;25.76;53.47;95078.72;5094318;28;20024;-53
2022/06/14 08:55:01;;;;;;;5.43;3.95;;;;;;;25.78;53.28;95081.66;5080261;28;20020;-52
2022/06/14 08:57:35;;;;;;;94.60;49.05;;;;;;;25.79;53.15;95079.13;5082376;28;20032;-53
2022/06/14 09:00:38;;;;;;;183.95;105.03;;;;;;;25.79;53.50;95073.66;5088157;28;20050;-52
2022/06/14 09:03:27;;;;;;;303.85;179.70;;;;;;;25.79;53.46;95068.19;5091629;28;20037;-53
2022/06/14 09:06:32;;;;;;;336.70;208.95;;;;;;;25.85;53.55;95068.84;5082339;28;20027;-51
2022/06/14 09:09:25;;;;;;;4.32;3.40;;;;;;;25.86;53.35;95078.53;5000456;28;20037;-54
2022/06/14 09:12:28;;;;;;;782.05;561.05;;;;;;;25.90;53.02;95067.25;4977910;28;20029;-53
2022/06/14 09:15:03;;;;;;;63.13;54.20;;;;;;;25.91;53.17;95069.47;5054958;28;20042;-55
2022/06/14 09:17:37;;;;;;;808.40;480.92;;;;;;;25.93;53.05;95069.72;5102713;28;20031;-52
2022/06/14 09:20:04;;;;;;;233.55;119.47;;;;;;;25.93;53.02;95071.69;5075463;28;20159;-56
2022/06/14 09:22:44;;;;;;;4.20;3.60;;;;;;;25.98;52.78;95079.81;5092346;28;20044;-52
2022/06/14 09:25:19;;;;;;;4.07;3.58;;;;;;;26.10;52.50;95075.63;5084678;28;20035;-56
2022/06/14 09:27:53;;;;;;;6.72;3.60;;;;;;;26.21;51.93;95080.88;5083217;28;20051;-53
2022/06/14 09:30:49;;;;;;;5.72;3.72;;;;;;;26.24;51.64;95074.34;5097850;28;20032;-54
2022/06/14 09:33:32;;;;;;;6.32;4.15;;;;;;;26.32;51.39;95064.25;5086271;28;20036;-53
2022/06/14 09:36:24;;;;;;;6.40;3.65;;;;;;;26.48;50.75;95060.47;5084108;28;20421;-53
2022/06/14 09:38:55;;;;;;;4.68;3.60;;;;;;;26.57;50.68;95065.50;5084146;28;20110;-52
2022/06/14 09:41:47;;;;;;;4.78;3.40;;;;;;;26.76;50.37;95064.84;5083734;28;20031;-53
2022/06/14 09:44:21;;;;;;;4.80;3.85;;;;;;;26.74;50.21;95065.91;5058048;28;20122;-51
2022/06/14 09:47:03;;;;;;;4.22;3.55;;;;;;;26.95;49.99;95073.69;5087579;28;20024;-53
2022/06/14 09:49:45;;;;;;;5.03;3.60;;;;;;;27.03;49.36;95082.72;5064847;28;20022;-53
2022/06/14 09:52:26;;;;;;;5.32;3.45;;;;;;;27.15;49.00;95083.94;5074360;28;20032;-53
2022/06/14 09:55:17;;;;;;;4.63;3.53;;;;;;;27.18;48.65;95080.16;5095130;28;20036;-53
2022/06/14 09:58:20;;;;;;;5.40;3.65;;;;;;;27.36;47.85;95071.00;5085180;28;20032;-53
2022/06/14 10:00:58;;;;;;;5.25;3.92;;;;;;;27.45;47.59;95078.78;5076532;28;20062;-52
2022/06/14 10:04:08;;;;;;;6.70;3.85;;;;;;;27.48;47.24;95083.91;5100134;28;20028;-55
2022/06/14 10:07:06;;;;;;;5.38;3.80;;;;;;;27.60;46.26;95084.44;5064958;28;20525;-52
2022/06/14 10:10:08;;;;;;;4.70;3.38;;;;;;;27.61;44.65;95091.38;5009450;28;20071;-51
2022/06/14 10:13:09;;;;;;;5.93;3.28;;;;;;;27.58;44.25;95092.44;5087267;28;20491;-55
2022/06/14 10:15:57;;;;;;;4.53;2.88;;;;;;;27.59;42.80;95096.66;5029229;28;20051;-53
2022/06/14 10:18:35;;;;;;;4.65;2.40;;;;;;;27.62;41.53;95092.84;5072105;28;20135;-55
2022/06/14 10:21:18;;;;;;;3.78;2.42;;;;;;;27.53;41.84;95085.09;5087303;28;20031;-55
2022/06/14 10:24:02;;;;;;;3.88;2.33;;;;;;;27.63;40.36;95083.34;5079734;28;20023;-53
2022/06/14 10:30:09;;;;;;;3.78;2.20;;;;;;;27.49;40.46;95099.13;5086987;28;20513;-52
2022/06/14 10:32:40;;;;;;;4.45;2.45;;;;;;;27.48;40.97;95092.16;5085546;28;20181;-55
2022/06/14 10:35:09;;;;;;;3.60;2.00;;;;;;;27.52;40.82;95083.59;5091615;28;20107;-52
2022/06/14 10:37:44;;;;;;;4.63;2.53;;;;;;;27.53;41.04;95079.59;5096016;28;20026;-54
2022/06/14 10:40:51;;;;;;;4.60;2.45;;;;;;;27.47;41.68;95076.22;5069031;28;20020;-53
2022/06/14 10:43:34;;;;;;;3.90;2.30;;;;;;;27.71;41.99;95084.16;5083413;28;20035;-55
2022/06/14 10:46:08;;;;;;;4.95;2.30;;;;;;;27.75;41.80;95086.00;5080567;28;20032;-54
2022/06/14 10:48:43;;;;;;;4.75;2.30;;;;;;;27.78;42.38;95087.69;5065719;28;20497;-55
2022/06/14 10:51:43;;;;;;;44.05;11.30;;;;;;;27.76;43.30;95082.00;5066870;28;20107;-52
2022/06/14 10:54:12;;;;;;;98.25;36.55;;;;;;;27.71;43.46;95089.66;5082472;28;20051;-55
2022/06/14 10:57:16;;;;;;;9.68;3.30;;;;;;;27.66;44.97;95094.00;5074041;28;20433;-52
2022/06/14 10:59:48;;;;;;;6.00;2.60;;;;;;;27.59;45.24;95093.94;5005491;28;20619;-51
2022/06/14 11:02:40;;;;;;;7.72;2.80;;;;;;;27.46;46.75;95091.22;5069883;28;20283;-53
2022/06/14 11:05:23;;;;;;;9.10;3.20;;;;;;;27.36;47.28;95099.16;5080917;28;20506;-52
2022/06/14 11:07:51;;;;;;;5.50;2.97;;;;;;;27.13;47.34;95091.97;5081970;28;20023;-56
2022/06/14 11:10:26;;;;;;;8.52;2.90;;;;;;;27.00;46.93;95089.25;5097298;28;20031;-51
2022/06/14 11:13:14;;;;;;;6.38;2.50;;;;;;;26.93;47.61;95084.44;5077027;28;20136;-53
2022/06/14 11:15:47;;;;;;;5.85;2.53;;;;;;;26.74;48.55;95093.28;5081787;28;20047;-55
2022/06/14 11:18:27;;;;;;;7.70;3.00;;;;;;;26.56;49.87;95094.91;5086853;28;20135;-53
2022/06/14 11:21:14;;;;;;;4.57;2.50;;;;;;;26.58;49.39;95091.66;5074718;28;20509;-54
2022/06/14 11:24:09;;;;;;;6.72;2.70;;;;;;;26.38;50.04;95089.53;5087203;28;20114;-57
2022/06/14 11:26:46;;;;;;;6.55;2.60;;;;;;;26.19;50.25;95088.88;5060064;28;20043;-51
2022/06/14 11:29:18;;;;;;;7.20;2.65;;;;;;;26.15;50.56;95088.44;5053413;28;20887;-54
2022/06/14 11:31:45;;;;;;;4.13;2.05;;;;;;;26.01;50.83;95097.91;5087564;28;20465;-53
2022/06/14 11:34:16;;;;;;;4.57;2.20;;;;;;;25.87;50.98;95085.47;5077434;28;20419;-53
2022/06/14 11:37:03;;;;;;;5.47;2.70;;;;;;;25.83;50.99;95085.06;5098645;28;20026;-52
2022/06/14 11:39:39;;;;;;;6.00;2.40;;;;;;;25.74;50.71;95078.50;5086284;28;20236;-52
2022/06/14 11:42:27;;;;;;;5.07;2.20;;;;;;;25.85;50.11;95070.84;5079296;28;20562;-53
2022/06/14 11:45:33;;;;;;;5.22;2.30;;;;;;;25.83;50.16;95068.63;5069931;28;20482;-52
2022/06/14 11:48:13;;;;;;;4.65;2.20;;;;;;;25.82;50.20;95067.16;5093464;28;20054;-54
2022/06/14 11:51:04;;;;;;;2.58;1.70;;;;;;;25.82;50.10;95055.47;5089394;28;20642;-56
2022/06/14 11:53:38;;;;;;;5.35;2.10;;;;;;;25.79;50.46;95057.25;5078184;28;20648;-54
2022/06/14 11:56:22;;;;;;;3.17;1.70;;;;;;;25.87;50.16;95052.66;5082232;28;20040;-54
2022/06/14 11:59:07;;;;;;;3.85;1.85;;;;;;;25.92;50.35;95054.53;5086313;28;20078;-51
2022/06/14 12:01:56;;;;;;;3.97;1.90;;;;;;;25.95;51.01;95048.03;5101128;28;20126;-53
2022/06/14 12:04:28;;;;;;;3.83;1.90;;;;;;;25.97;50.65;95056.44;5078047;28;20028;-54
2022/06/14 12:07:02;;;;;;;2.58;1.77;;;;;;;25.94;50.82;95041.06;5086842;28;20024;-53
2022/06/14 12:09:51;;;;;;;3.40;2.50;;;;;;;25.94;51.29;95035.59;5064815;28;20017;-52
2022/06/14 12:12:20;;;;;;;3.13;2.05;;;;;;;25.99;51.15;95048.44;5087826;28;20046;-52
2022/06/14 12:14:49;;;;;;;5.75;2.08;;;;;;;26.03;51.47;95040.66;5092775;28;20027;-53
2022/06/14 12:17:36;;;;;;;5.05;2.30;;;;;;;25.99;51.91;95037.50;5102032;28;20570;-53
2022/06/14 12:20:12;;;;;;;5.60;2.50;;;;;;;26.04;53.69;95039.41;5075572;28;20012;-52
2022/06/14 12:22:39;;;;;;;3.55;2.63;;;;;;;26.04;52.64;95044.88;5097750;28;20039;-53
2022/06/14 12:28:23;;;;;;;246.90;181.65;;;;;;;26.01;52.38;95040.44;5092935;28;20043;-53
2022/06/14 12:30:50;;;;;;;4.50;2.72;;;;;;;26.12;51.92;95034.75;5081649;28;20032;-52
2022/06/14 12:33:41;;;;;;;6.90;2.50;;;;;;;26.12;51.25;95023.81;5075647;28;20176;-52
2022/06/14 12:36:25;;;;;;;4.55;2.58;;;;;;;26.11;51.26;95027.78;5074315;28;20323;-53